sensor_id;sensor_type;location;lat;lon;timestamp;P1;durP1;ratioP1;P2;durP2;ratioP2
38715;SDS011;24833;49.324;8.694;2022-10-26T00:01:08;2.70;;;1.05;;
38715;SDS011;24833;49.324;8.694;2022-10-26T00:03:41;1.60;;;1.02;;
38715;SDS011;24833;49.324;8.694;2022-10-26T00:06:11;1.58;;;1.10;;
38715;SDS011;24833;49.324;8.694;2022-10-26T00:11:08;2.47;;;0.93;;
38715;SDS011;24833;49.324;8.694;2022-10-26T00:13:37;2.85;;;1.52;;
38715;SDS011;24833;49.324;8.694;2022-10-26T00:16:09;3.30;;;1.70;;
38715;SDS011;24833;49.324;8.694;2022-10-26T00:18:40;2.92;;;1.20;;
38715;SDS011;24833;49.324;8.694;2022-10-26T00:21:08;4.57;;;1.42;;
38715;SDS011;24833;49.324;8.694;2022-10-26T00:23:36;2.42;;;0.90;;
38715;SDS011;24833;49.324;8.694;2022-10-26T00:26:03;2.80;;;1.35;;
38715;SDS011;24833;49.324;8.694;2022-10-26T00:28:31;3.85;;;1.50;;
38715;SDS011;24833;49.324;8.694;2022-10-26T00:31:01;2.63;;;1.17;;
38715;SDS011;24833;49.324;8.694;2022-10-26T00:33:32;3.05;;;1.20;;
38715;SDS011;24833;49.324;8.694;2022-10-26T00:35:59;4.53;;;1.38;;
38715;SDS011;24833;49.324;8.694;2022-10-26T00:38:26;2.63;;;1.15;;
38715;SDS011;24833;49.324;8.694;2022-10-26T00:40:53;2.67;;;1.10;;
38715;SDS011;24833;49.324;8.694;2022-10-26T00:45:50;5.40;;;1.40;;
38715;SDS011;24833;49.324;8.694;2022-10-26T00:48:22;3.28;;;1.23;;
38715;SDS011;24833;49.324;8.694;2022-10-26T00:50:55;3.15;;;1.10;;
38715;SDS011;24833;49.324;8.694;2022-10-26T00:53:27;3.15;;;0.82;;
38715;SDS011;24833;49.324;8.694;2022-10-26T00:55:55;4.70;;;1.30;;
38715;SDS011;24833;49.324;8.694;2022-10-26T00:58:23;3.65;;;1.38;;
38715;SDS011;24833;49.324;8.694;2022-10-26T01:00:51;1.52;;;1.00;;
38715;SDS011;24833;49.324;8.694;2022-10-26T01:03:18;3.20;;;1.05;;
38715;SDS011;24833;49.324;8.694;2022-10-26T01:05:50;1.23;;;1.00;;
38715;SDS011;24833;49.324;8.694;2022-10-26T01:08:23;4.43;;;1.20;;
38715;SDS011;24833;49.324;8.694;2022-10-26T01:10:53;3.33;;;1.55;;
38715;SDS011;24833;49.324;8.694;2022-10-26T01:13:24;3.17;;;1.30;;
38715;SDS011;24833;49.324;8.694;2022-10-26T01:38:31;3.40;;;1.00;;
38715;SDS011;24833;49.324;8.694;2022-10-26T01:41:16;1.75;;;1.10;;
38715;SDS011;24833;49.324;8.694;2022-10-26T01:43:55;1.80;;;1.02;;
38715;SDS011;24833;49.324;8.694;2022-10-26T01:46:29;3.05;;;1.48;;
38715;SDS011;24833;49.324;8.694;2022-10-26T01:49:06;2.72;;;1.23;;
38715;SDS011;24833;49.324;8.694;2022-10-26T01:51:37;3.25;;;1.25;;
38715;SDS011;24833;49.324;8.694;2022-10-26T01:54:08;3.13;;;1.10;;
38715;SDS011;24833;49.324;8.694;2022-10-26T01:56:36;5.65;;;1.45;;
38715;SDS011;24833;49.324;8.694;2022-10-26T01:59:14;3.65;;;1.45;;
38715;SDS011;24833;49.324;8.694;2022-10-26T02:10:55;3.15;;;1.20;;
38715;SDS011;24833;49.324;8.694;2022-10-26T02:13:40;3.88;;;1.30;;
38715;SDS011;24833;49.324;8.694;2022-10-26T02:16:25;4.60;;;1.27;;
38715;SDS011;24833;49.324;8.694;2022-10-26T02:22:07;1.75;;;0.95;;
38715;SDS011;24833;49.324;8.694;2022-10-26T02:24:36;4.75;;;1.10;;
38715;SDS011;24833;49.324;8.694;2022-10-26T02:27:05;1.92;;;1.05;;
38715;SDS011;24833;49.324;8.694;2022-10-26T02:29:36;2.08;;;1.00;;
38715;SDS011;24833;49.324;8.694;2022-10-26T02:32:05;1.80;;;0.80;;
38715;SDS011;24833;49.324;8.694;2022-10-26T02:34:34;3.50;;;1.17;;
38715;SDS011;24833;49.324;8.694;2022-10-26T02:37:03;1.92;;;1.02;;
38715;SDS011;24833;49.324;8.694;2022-10-26T02:39:32;2.08;;;1.13;;
38715;SDS011;24833;49.324;8.694;2022-10-26T02:42:02;3.75;;;1.17;;
38715;SDS011;24833;49.324;8.694;2022-10-26T02:44:35;5.32;;;1.10;;
38715;SDS011;24833;49.324;8.694;2022-10-26T02:47:15;2.03;;;0.80;;
38715;SDS011;24833;49.324;8.694;2022-10-26T02:49:44;0.95;;;0.70;;
38715;SDS011;24833;49.324;8.694;2022-10-26T02:55:26;3.05;;;1.17;;
38715;SDS011;24833;49.324;8.694;2022-10-26T02:58:01;2.45;;;1.05;;
38715;SDS011;24833;49.324;8.694;2022-10-26T03:00:35;5.78;;;1.00;;
38715;SDS011;24833;49.324;8.694;2022-10-26T03:03:02;4.15;;;1.30;;
38715;SDS011;24833;49.324;8.694;2022-10-26T03:05:31;2.15;;;1.10;;
38715;SDS011;24833;49.324;8.694;2022-10-26T03:07:58;5.78;;;1.67;;
38715;SDS011;24833;49.324;8.694;2022-10-26T03:10:25;2.78;;;0.98;;
38715;SDS011;24833;49.324;8.694;2022-10-26T03:12:53;3.05;;;1.00;;
38715;SDS011;24833;49.324;8.694;2022-10-26T03:15:20;3.75;;;1.00;;
38715;SDS011;24833;49.324;8.694;2022-10-26T03:17:47;3.92;;;1.02;;
38715;SDS011;24833;49.324;8.694;2022-10-26T03:20:14;3.38;;;1.15;;
38715;SDS011;24833;49.324;8.694;2022-10-26T03:22:41;1.10;;;0.93;;
38715;SDS011;24833;49.324;8.694;2022-10-26T03:25:08;1.92;;;1.20;;
38715;SDS011;24833;49.324;8.694;2022-10-26T03:27:35;1.30;;;0.75;;
38715;SDS011;24833;49.324;8.694;2022-10-26T03:30:03;2.55;;;1.10;;
38715;SDS011;24833;49.324;8.694;2022-10-26T03:32:31;2.88;;;1.10;;
38715;SDS011;24833;49.324;8.694;2022-10-26T03:34:58;1.45;;;1.10;;
38715;SDS011;24833;49.324;8.694;2022-10-26T03:37:25;2.03;;;1.00;;
38715;SDS011;24833;49.324;8.694;2022-10-26T03:39:52;0.77;;;0.70;;
38715;SDS011;24833;49.324;8.694;2022-10-26T03:42:19;2.10;;;1.10;;
38715;SDS011;24833;49.324;8.694;2022-10-26T03:44:46;1.95;;;1.08;;
38715;SDS011;24833;49.324;8.694;2022-10-26T03:47:13;1.63;;;1.20;;
38715;SDS011;24833;49.324;8.694;2022-10-26T03:49:40;2.72;;;1.20;;
38715;SDS011;24833;49.324;8.694;2022-10-26T03:52:07;2.58;;;1.13;;
38715;SDS011;24833;49.324;8.694;2022-10-26T03:54:34;3.53;;;1.38;;
38715;SDS011;24833;49.324;8.694;2022-10-26T03:57:01;3.17;;;1.17;;
38715;SDS011;24833;49.324;8.694;2022-10-26T03:59:28;2.67;;;1.30;;
38715;SDS011;24833;49.324;8.694;2022-10-26T04:01:55;1.55;;;1.08;;
38715;SDS011;24833;49.324;8.694;2022-10-26T04:04:23;4.93;;;1.50;;
38715;SDS011;24833;49.324;8.694;2022-10-26T04:06:50;3.40;;;1.02;;
38715;SDS011;24833;49.324;8.694;2022-10-26T04:09:17;2.63;;;1.00;;
38715;SDS011;24833;49.324;8.694;2022-10-26T04:11:44;2.22;;;1.10;;
38715;SDS011;24833;49.324;8.694;2022-10-26T04:14:11;1.88;;;1.27;;
38715;SDS011;24833;49.324;8.694;2022-10-26T04:16:38;3.97;;;1.23;;
38715;SDS011;24833;49.324;8.694;2022-10-26T04:19:05;4.22;;;1.33;;
38715;SDS011;24833;49.324;8.694;2022-10-26T04:21:32;5.00;;;1.40;;
38715;SDS011;24833;49.324;8.694;2022-10-26T04:24:00;1.75;;;1.20;;
38715;SDS011;24833;49.324;8.694;2022-10-26T04:26:28;2.13;;;1.45;;
38715;SDS011;24833;49.324;8.694;2022-10-26T04:28:55;2.85;;;1.25;;
38715;SDS011;24833;49.324;8.694;2022-10-26T04:31:22;2.10;;;1.38;;
38715;SDS011;24833;49.324;8.694;2022-10-26T04:33:49;2.90;;;1.50;;
38715;SDS011;24833;49.324;8.694;2022-10-26T04:36:16;5.20;;;1.40;;
38715;SDS011;24833;49.324;8.694;2022-10-26T04:38:43;1.50;;;1.20;;
38715;SDS011;24833;49.324;8.694;2022-10-26T04:41:10;1.05;;;0.95;;
38715;SDS011;24833;49.324;8.694;2022-10-26T04:43:37;3.90;;;1.17;;
38715;SDS011;24833;49.324;8.694;2022-10-26T04:46:04;2.85;;;1.27;;
38715;SDS011;24833;49.324;8.694;2022-10-26T04:48:31;1.60;;;1.00;;
38715;SDS011;24833;49.324;8.694;2022-10-26T04:50:59;1.88;;;1.00;;
38715;SDS011;24833;49.324;8.694;2022-10-26T04:53:26;3.42;;;1.30;;
38715;SDS011;24833;49.324;8.694;2022-10-26T04:55:57;1.90;;;1.30;;
38715;SDS011;24833;49.324;8.694;2022-10-26T04:58:28;4.60;;;1.60;;
38715;SDS011;24833;49.324;8.694;2022-10-26T05:00:55;2.28;;;1.20;;
38715;SDS011;24833;49.324;8.694;2022-10-26T05:03:22;2.30;;;1.20;;
38715;SDS011;24833;49.324;8.694;2022-10-26T05:05:49;3.22;;;1.48;;
38715;SDS011;24833;49.324;8.694;2022-10-26T05:08:16;1.55;;;1.08;;
38715;SDS011;24833;49.324;8.694;2022-10-26T05:10:47;4.88;;;1.35;;
38715;SDS011;24833;49.324;8.694;2022-10-26T05:13:15;2.08;;;1.40;;
38715;SDS011;24833;49.324;8.694;2022-10-26T05:15:43;2.97;;;1.15;;
38715;SDS011;24833;49.324;8.694;2022-10-26T05:18:10;2.65;;;1.00;;
38715;SDS011;24833;49.324;8.694;2022-10-26T05:20:37;1.17;;;1.05;;
38715;SDS011;24833;49.324;8.694;2022-10-26T05:23:05;1.73;;;1.13;;
38715;SDS011;24833;49.324;8.694;2022-10-26T05:25:36;3.85;;;1.17;;
38715;SDS011;24833;49.324;8.694;2022-10-26T05:28:04;2.72;;;1.10;;
38715;SDS011;24833;49.324;8.694;2022-10-26T05:30:35;2.83;;;1.20;;
38715;SDS011;24833;49.324;8.694;2022-10-26T05:33:03;3.10;;;1.20;;
38715;SDS011;24833;49.324;8.694;2022-10-26T05:35:31;5.75;;;1.45;;
38715;SDS011;24833;49.324;8.694;2022-10-26T05:37:58;4.10;;;1.20;;
38715;SDS011;24833;49.324;8.694;2022-10-26T05:40:31;1.73;;;1.10;;
38715;SDS011;24833;49.324;8.694;2022-10-26T05:42:59;1.20;;;1.10;;
38715;SDS011;24833;49.324;8.694;2022-10-26T05:45:27;2.35;;;0.90;;
38715;SDS011;24833;49.324;8.694;2022-10-26T05:47:54;2.95;;;1.48;;
38715;SDS011;24833;49.324;8.694;2022-10-26T05:50:27;2.17;;;1.00;;
38715;SDS011;24833;49.324;8.694;2022-10-26T05:52:54;4.97;;;1.02;;
38715;SDS011;24833;49.324;8.694;2022-10-26T05:55:21;1.70;;;1.00;;
38715;SDS011;24833;49.324;8.694;2022-10-26T05:57:49;3.28;;;1.20;;
38715;SDS011;24833;49.324;8.694;2022-10-26T06:00:18;1.35;;;1.00;;
38715;SDS011;24833;49.324;8.694;2022-10-26T06:06:01;3.58;;;1.20;;
38715;SDS011;24833;49.324;8.694;2022-10-26T06:08:32;2.50;;;1.20;;
38715;SDS011;24833;49.324;8.694;2022-10-26T06:11:00;1.73;;;0.88;;
38715;SDS011;24833;49.324;8.694;2022-10-26T06:13:28;1.80;;;0.90;;
38715;SDS011;24833;49.324;8.694;2022-10-26T06:18:46;3.63;;;1.17;;
38715;SDS011;24833;49.324;8.694;2022-10-26T06:24:36;2.03;;;1.17;;
38715;SDS011;24833;49.324;8.694;2022-10-26T06:30:40;1.67;;;1.00;;
38715;SDS011;24833;49.324;8.694;2022-10-26T06:33:08;3.58;;;1.30;;
38715;SDS011;24833;49.324;8.694;2022-10-26T06:35:57;2.90;;;1.27;;
38715;SDS011;24833;49.324;8.694;2022-10-26T06:38:41;1.83;;;0.93;;
38715;SDS011;24833;49.324;8.694;2022-10-26T06:41:13;5.20;;;1.58;;
38715;SDS011;24833;49.324;8.694;2022-10-26T06:43:41;3.35;;;0.90;;
38715;SDS011;24833;49.324;8.694;2022-10-26T06:48:43;1.63;;;0.80;;
38715;SDS011;24833;49.324;8.694;2022-10-26T06:54:32;5.22;;;1.23;;
38715;SDS011;24833;49.324;8.694;2022-10-26T06:57:21;3.20;;;1.10;;
38715;SDS011;24833;49.324;8.694;2022-10-26T07:00:07;2.60;;;1.00;;
38715;SDS011;24833;49.324;8.694;2022-10-26T07:02:46;3.22;;;0.90;;
38715;SDS011;24833;49.324;8.694;2022-10-26T07:05:15;3.60;;;1.17;;
38715;SDS011;24833;49.324;8.694;2022-10-26T07:07:44;2.30;;;1.10;;
38715;SDS011;24833;49.324;8.694;2022-10-26T07:10:13;1.67;;;1.08;;
38715;SDS011;24833;49.324;8.694;2022-10-26T07:12:41;3.50;;;1.20;;
38715;SDS011;24833;49.324;8.694;2022-10-26T07:15:08;1.67;;;1.13;;
38715;SDS011;24833;49.324;8.694;2022-10-26T07:17:45;1.10;;;0.98;;
38715;SDS011;24833;49.324;8.694;2022-10-26T07:20:15;1.85;;;1.30;;
38715;SDS011;24833;49.324;8.694;2022-10-26T07:22:50;4.00;;;1.20;;
38715;SDS011;24833;49.324;8.694;2022-10-26T07:25:22;1.15;;;1.00;;
38715;SDS011;24833;49.324;8.694;2022-10-26T07:27:50;3.28;;;1.10;;
38715;SDS011;24833;49.324;8.694;2022-10-26T07:30:17;1.58;;;1.08;;
38715;SDS011;24833;49.324;8.694;2022-10-26T07:32:44;1.17;;;0.80;;
38715;SDS011;24833;49.324;8.694;2022-10-26T07:35:12;1.63;;;1.05;;
38715;SDS011;24833;49.324;8.694;2022-10-26T07:37:39;2.17;;;1.20;;
38715;SDS011;24833;49.324;8.694;2022-10-26T07:40:06;2.13;;;1.20;;
38715;SDS011;24833;49.324;8.694;2022-10-26T07:42:34;3.22;;;1.13;;
38715;SDS011;24833;49.324;8.694;2022-10-26T07:45:02;2.22;;;1.13;;
38715;SDS011;24833;49.324;8.694;2022-10-26T07:47:30;1.45;;;1.00;;
38715;SDS011;24833;49.324;8.694;2022-10-26T07:49:57;3.30;;;1.20;;
38715;SDS011;24833;49.324;8.694;2022-10-26T07:52:23;1.60;;;0.90;;
38715;SDS011;24833;49.324;8.694;2022-10-26T07:54:50;1.13;;;0.80;;
38715;SDS011;24833;49.324;8.694;2022-10-26T07:57:17;2.03;;;1.00;;
38715;SDS011;24833;49.324;8.694;2022-10-26T07:59:44;2.10;;;1.20;;
38715;SDS011;24833;49.324;8.694;2022-10-26T08:02:12;4.68;;;1.30;;
38715;SDS011;24833;49.324;8.694;2022-10-26T08:04:39;3.35;;;1.10;;
38715;SDS011;24833;49.324;8.694;2022-10-26T08:07:09;2.93;;;1.17;;
38715;SDS011;24833;49.324;8.694;2022-10-26T08:09:36;2.42;;;1.40;;
38715;SDS011;24833;49.324;8.694;2022-10-26T08:12:03;2.60;;;1.17;;
38715;SDS011;24833;49.324;8.694;2022-10-26T08:14:30;1.58;;;1.30;;
38715;SDS011;24833;49.324;8.694;2022-10-26T08:16:57;2.35;;;1.33;;
38715;SDS011;24833;49.324;8.694;2022-10-26T08:19:24;2.80;;;1.13;;
38715;SDS011;24833;49.324;8.694;2022-10-26T08:21:51;3.88;;;1.17;;
38715;SDS011;24833;49.324;8.694;2022-10-26T08:24:18;2.03;;;1.30;;
38715;SDS011;24833;49.324;8.694;2022-10-26T08:26:45;3.83;;;1.40;;
38715;SDS011;24833;49.324;8.694;2022-10-26T08:29:12;4.00;;;1.27;;
38715;SDS011;24833;49.324;8.694;2022-10-26T08:31:39;4.50;;;1.63;;
38715;SDS011;24833;49.324;8.694;2022-10-26T08:34:06;2.92;;;1.00;;
38715;SDS011;24833;49.324;8.694;2022-10-26T08:36:33;3.30;;;1.17;;
38715;SDS011;24833;49.324;8.694;2022-10-26T08:39:00;1.10;;;0.90;;
38715;SDS011;24833;49.324;8.694;2022-10-26T08:41:45;2.60;;;1.50;;
38715;SDS011;24833;49.324;8.694;2022-10-26T08:44:22;4.15;;;1.45;;
38715;SDS011;24833;49.324;8.694;2022-10-26T08:47:05;3.47;;;1.30;;
38715;SDS011;24833;49.324;8.694;2022-10-26T08:52:41;3.03;;;1.80;;
38715;SDS011;24833;49.324;8.694;2022-10-26T08:55:20;1.58;;;1.25;;
38715;SDS011;24833;49.324;8.694;2022-10-26T08:57:54;2.47;;;1.58;;
38715;SDS011;24833;49.324;8.694;2022-10-26T09:00:22;3.08;;;1.30;;
38715;SDS011;24833;49.324;8.694;2022-10-26T09:02:51;2.20;;;1.40;;
38715;SDS011;24833;49.324;8.694;2022-10-26T09:05:25;2.92;;;1.52;;
38715;SDS011;24833;49.324;8.694;2022-10-26T09:08:09;4.90;;;1.30;;
38715;SDS011;24833;49.324;8.694;2022-10-26T09:11:03;6.07;;;1.67;;
38715;SDS011;24833;49.324;8.694;2022-10-26T09:21:52;3.40;;;1.50;;
38715;SDS011;24833;49.324;8.694;2022-10-26T09:24:41;2.42;;;1.50;;
38715;SDS011;24833;49.324;8.694;2022-10-26T09:29:58;3.33;;;1.42;;
38715;SDS011;24833;49.324;8.694;2022-10-26T09:32:39;2.85;;;1.65;;
38715;SDS011;24833;49.324;8.694;2022-10-26T09:35:18;3.00;;;1.48;;
38715;SDS011;24833;49.324;8.694;2022-10-26T09:41:26;4.93;;;1.42;;
38715;SDS011;24833;49.324;8.694;2022-10-26T09:44:13;3.20;;;1.38;;
38715;SDS011;24833;49.324;8.694;2022-10-26T09:47:14;6.00;;;2.08;;
38715;SDS011;24833;49.324;8.694;2022-10-26T09:50:17;3.78;;;1.67;;
38715;SDS011;24833;49.324;8.694;2022-10-26T09:52:53;3.63;;;1.87;;
38715;SDS011;24833;49.324;8.694;2022-10-26T09:55:20;2.75;;;1.63;;
38715;SDS011;24833;49.324;8.694;2022-10-26T09:57:49;5.40;;;1.80;;
38715;SDS011;24833;49.324;8.694;2022-10-26T10:00:22;2.45;;;1.52;;
38715;SDS011;24833;49.324;8.694;2022-10-26T10:02:53;6.35;;;2.90;;
38715;SDS011;24833;49.324;8.694;2022-10-26T10:05:23;3.75;;;2.08;;
38715;SDS011;24833;49.324;8.694;2022-10-26T10:11:07;6.00;;;2.53;;
38715;SDS011;24833;49.324;8.694;2022-10-26T10:13:38;7.80;;;2.80;;
38715;SDS011;24833;49.324;8.694;2022-10-26T10:16:21;2.80;;;1.90;;
38715;SDS011;24833;49.324;8.694;2022-10-26T10:18:56;5.88;;;2.65;;
38715;SDS011;24833;49.324;8.694;2022-10-26T10:21:38;4.93;;;2.38;;
38715;SDS011;24833;49.324;8.694;2022-10-26T10:24:30;4.35;;;2.13;;
38715;SDS011;24833;49.324;8.694;2022-10-26T10:27:02;3.13;;;1.85;;
38715;SDS011;24833;49.324;8.694;2022-10-26T10:29:43;3.03;;;1.75;;
38715;SDS011;24833;49.324;8.694;2022-10-26T10:33:02;2.13;;;1.55;;
38715;SDS011;24833;49.324;8.694;2022-10-26T10:35:39;3.50;;;1.70;;
38715;SDS011;24833;49.324;8.694;2022-10-26T10:38:16;3.60;;;1.73;;
38715;SDS011;24833;49.324;8.694;2022-10-26T10:40:58;4.10;;;1.92;;
38715;SDS011;24833;49.324;8.694;2022-10-26T10:43:29;6.18;;;2.20;;
38715;SDS011;24833;49.324;8.694;2022-10-26T10:45:56;3.65;;;1.90;;
38715;SDS011;24833;49.324;8.694;2022-10-26T10:48:26;4.00;;;1.80;;
38715;SDS011;24833;49.324;8.694;2022-10-26T10:51:01;3.80;;;1.77;;
38715;SDS011;24833;49.324;8.694;2022-10-26T10:59:14;3.83;;;1.67;;
38715;SDS011;24833;49.324;8.694;2022-10-26T11:02:10;5.63;;;1.48;;
38715;SDS011;24833;49.324;8.694;2022-10-26T11:05:18;3.83;;;1.33;;
38715;SDS011;24833;49.324;8.694;2022-10-26T11:08:16;3.10;;;1.48;;
38715;SDS011;24833;49.324;8.694;2022-10-26T11:11:05;5.10;;;1.83;;
38715;SDS011;24833;49.324;8.694;2022-10-26T11:13:46;2.50;;;1.52;;
38715;SDS011;24833;49.324;8.694;2022-10-26T11:16:19;7.47;;;1.65;;
38715;SDS011;24833;49.324;8.694;2022-10-26T11:19:04;2.22;;;1.30;;
38715;SDS011;24833;49.324;8.694;2022-10-26T11:21:53;2.07;;;1.23;;
38715;SDS011;24833;49.324;8.694;2022-10-26T11:32:42;2.83;;;1.25;;
38715;SDS011;24833;49.324;8.694;2022-10-26T11:35:17;4.00;;;1.67;;
38715;SDS011;24833;49.324;8.694;2022-10-26T11:38:16;5.13;;;1.30;;
38715;SDS011;24833;49.324;8.694;2022-10-26T11:44:30;4.68;;;1.80;;
38715;SDS011;24833;49.324;8.694;2022-10-26T11:47:11;5.97;;;1.67;;
38715;SDS011;24833;49.324;8.694;2022-10-26T11:49:52;6.63;;;2.05;;
38715;SDS011;24833;49.324;8.694;2022-10-26T11:53:04;5.50;;;1.30;;
38715;SDS011;24833;49.324;8.694;2022-10-26T11:55:26;3.78;;;1.35;;
38715;SDS011;24833;49.324;8.694;2022-10-26T11:57:54;4.93;;;1.35;;
38715;SDS011;24833;49.324;8.694;2022-10-26T12:00:23;3.67;;;1.42;;
38715;SDS011;24833;49.324;8.694;2022-10-26T12:02:55;3.42;;;1.52;;
38715;SDS011;24833;49.324;8.694;2022-10-26T12:08:07;4.13;;;1.58;;
38715;SDS011;24833;49.324;8.694;2022-10-26T12:10:47;4.13;;;1.58;;
38715;SDS011;24833;49.324;8.694;2022-10-26T12:13:37;4.18;;;1.33;;
38715;SDS011;24833;49.324;8.694;2022-10-26T12:22:31;4.45;;;1.65;;
38715;SDS011;24833;49.324;8.694;2022-10-26T12:32:50;3.95;;;1.38;;
38715;SDS011;24833;49.324;8.694;2022-10-26T12:35:37;3.35;;;1.27;;
38715;SDS011;24833;49.324;8.694;2022-10-26T12:41:17;4.07;;;1.70;;
38715;SDS011;24833;49.324;8.694;2022-10-26T12:43:51;2.97;;;1.40;;
38715;SDS011;24833;49.324;8.694;2022-10-26T12:48:51;5.25;;;1.65;;
38715;SDS011;24833;49.324;8.694;2022-10-26T13:02:19;2.75;;;1.50;;
38715;SDS011;24833;49.324;8.694;2022-10-26T13:07:45;3.47;;;1.15;;
38715;SDS011;24833;49.324;8.694;2022-10-26T13:12:46;4.13;;;1.38;;
38715;SDS011;24833;49.324;8.694;2022-10-26T13:15:23;3.10;;;1.17;;
38715;SDS011;24833;49.324;8.694;2022-10-26T13:20:36;1.95;;;1.23;;
38715;SDS011;24833;49.324;8.694;2022-10-26T13:23:24;5.80;;;1.48;;
38715;SDS011;24833;49.324;8.694;2022-10-26T13:26:01;4.10;;;1.60;;
38715;SDS011;24833;49.324;8.694;2022-10-26T13:31:10;4.55;;;1.40;;
38715;SDS011;24833;49.324;8.694;2022-10-26T13:33:50;2.63;;;1.20;;
38715;SDS011;24833;49.324;8.694;2022-10-26T13:36:37;3.95;;;1.42;;
38715;SDS011;24833;49.324;8.694;2022-10-26T13:39:12;4.30;;;1.23;;
38715;SDS011;24833;49.324;8.694;2022-10-26T13:42:06;3.30;;;1.23;;
38715;SDS011;24833;49.324;8.694;2022-10-26T13:47:13;2.08;;;1.10;;
38715;SDS011;24833;49.324;8.694;2022-10-26T13:49:50;3.67;;;1.45;;
38715;SDS011;24833;49.324;8.694;2022-10-26T13:52:28;6.45;;;1.50;;
38715;SDS011;24833;49.324;8.694;2022-10-26T13:55:06;5.07;;;1.42;;
38715;SDS011;24833;49.324;8.694;2022-10-26T13:57:59;2.13;;;1.10;;
38715;SDS011;24833;49.324;8.694;2022-10-26T14:03:43;2.08;;;1.20;;
38715;SDS011;24833;49.324;8.694;2022-10-26T14:09:13;5.13;;;1.50;;
38715;SDS011;24833;49.324;8.694;2022-10-26T14:11:43;4.75;;;1.23;;
38715;SDS011;24833;49.324;8.694;2022-10-26T14:14:19;2.15;;;1.05;;
38715;SDS011;24833;49.324;8.694;2022-10-26T14:16:59;3.30;;;1.23;;
38715;SDS011;24833;49.324;8.694;2022-10-26T14:19:34;2.60;;;1.30;;
38715;SDS011;24833;49.324;8.694;2022-10-26T14:22:05;1.88;;;1.08;;
38715;SDS011;24833;49.324;8.694;2022-10-26T14:24:33;2.05;;;1.00;;
38715;SDS011;24833;49.324;8.694;2022-10-26T14:27:16;3.00;;;1.20;;
38715;SDS011;24833;49.324;8.694;2022-10-26T14:29:46;3.08;;;1.15;;
38715;SDS011;24833;49.324;8.694;2022-10-26T14:32:33;1.77;;;1.10;;
38715;SDS011;24833;49.324;8.694;2022-10-26T14:35:02;4.22;;;1.30;;
38715;SDS011;24833;49.324;8.694;2022-10-26T14:40:05;1.77;;;1.17;;
38715;SDS011;24833;49.324;8.694;2022-10-26T14:42:39;2.65;;;1.40;;
38715;SDS011;24833;49.324;8.694;2022-10-26T14:45:20;1.85;;;1.05;;
38715;SDS011;24833;49.324;8.694;2022-10-26T14:48:27;4.65;;;1.50;;
38715;SDS011;24833;49.324;8.694;2022-10-26T14:53:28;2.05;;;1.00;;
38715;SDS011;24833;49.324;8.694;2022-10-26T14:56:03;4.25;;;1.40;;
38715;SDS011;24833;49.324;8.694;2022-10-26T14:58:50;2.28;;;1.40;;
38715;SDS011;24833;49.324;8.694;2022-10-26T15:03:53;4.05;;;1.30;;
38715;SDS011;24833;49.324;8.694;2022-10-26T15:08:57;2.30;;;1.40;;
38715;SDS011;24833;49.324;8.694;2022-10-26T15:11:25;4.13;;;1.25;;
38715;SDS011;24833;49.324;8.694;2022-10-26T15:13:54;3.67;;;1.58;;
38715;SDS011;24833;49.324;8.694;2022-10-26T15:16:24;4.35;;;1.20;;
38715;SDS011;24833;49.324;8.694;2022-10-26T15:18:58;2.90;;;1.10;;
38715;SDS011;24833;49.324;8.694;2022-10-26T15:21:35;4.20;;;1.40;;
38715;SDS011;24833;49.324;8.694;2022-10-26T15:24:12;3.20;;;1.30;;
38715;SDS011;24833;49.324;8.694;2022-10-26T15:26:46;3.55;;;1.60;;
38715;SDS011;24833;49.324;8.694;2022-10-26T15:32:05;6.22;;;1.42;;
38715;SDS011;24833;49.324;8.694;2022-10-26T15:37:43;1.63;;;0.93;;
38715;SDS011;24833;49.324;8.694;2022-10-26T15:40:14;3.22;;;1.38;;
38715;SDS011;24833;49.324;8.694;2022-10-26T15:42:42;3.05;;;1.33;;
38715;SDS011;24833;49.324;8.694;2022-10-26T15:47:50;2.17;;;1.10;;
38715;SDS011;24833;49.324;8.694;2022-10-26T15:50:19;3.10;;;1.30;;
38715;SDS011;24833;49.324;8.694;2022-10-26T15:52:49;4.20;;;1.35;;
38715;SDS011;24833;49.324;8.694;2022-10-26T15:55:26;1.98;;;1.15;;
38715;SDS011;24833;49.324;8.694;2022-10-26T15:57:55;4.37;;;1.57;;
38715;SDS011;24833;49.324;8.694;2022-10-26T16:00:22;3.33;;;1.35;;
38715;SDS011;24833;49.324;8.694;2022-10-26T16:02:49;2.30;;;1.33;;
38715;SDS011;24833;49.324;8.694;2022-10-26T16:05:16;1.88;;;1.02;;
38715;SDS011;24833;49.324;8.694;2022-10-26T16:07:44;2.28;;;1.67;;
38715;SDS011;24833;49.324;8.694;2022-10-26T16:10:15;4.38;;;1.55;;
38715;SDS011;24833;49.324;8.694;2022-10-26T16:12:48;3.33;;;1.50;;
38715;SDS011;24833;49.324;8.694;2022-10-26T16:15:17;3.65;;;1.83;;
38715;SDS011;24833;49.324;8.694;2022-10-26T16:17:48;3.45;;;1.70;;
38715;SDS011;24833;49.324;8.694;2022-10-26T16:20:17;1.95;;;1.58;;
38715;SDS011;24833;49.324;8.694;2022-10-26T16:22:50;4.13;;;1.70;;
38715;SDS011;24833;49.324;8.694;2022-10-26T16:25:23;2.90;;;1.65;;
38715;SDS011;24833;49.324;8.694;2022-10-26T16:27:51;6.35;;;1.85;;
38715;SDS011;24833;49.324;8.694;2022-10-26T16:30:20;3.47;;;1.52;;
38715;SDS011;24833;49.324;8.694;2022-10-26T16:32:53;4.38;;;1.73;;
38715;SDS011;24833;49.324;8.694;2022-10-26T16:35:20;3.15;;;1.58;;
38715;SDS011;24833;49.324;8.694;2022-10-26T16:37:47;3.53;;;1.73;;
38715;SDS011;24833;49.324;8.694;2022-10-26T16:40:14;3.67;;;1.67;;
38715;SDS011;24833;49.324;8.694;2022-10-26T16:42:41;4.10;;;1.40;;
38715;SDS011;24833;49.324;8.694;2022-10-26T16:45:13;3.05;;;1.50;;
38715;SDS011;24833;49.324;8.694;2022-10-26T16:47:41;5.00;;;1.02;;
38715;SDS011;24833;49.324;8.694;2022-10-26T16:50:09;4.13;;;1.73;;
38715;SDS011;24833;49.324;8.694;2022-10-26T16:52:37;4.30;;;1.38;;
38715;SDS011;24833;49.324;8.694;2022-10-26T16:55:05;3.35;;;1.45;;
38715;SDS011;24833;49.324;8.694;2022-10-26T16:57:34;4.18;;;1.73;;
38715;SDS011;24833;49.324;8.694;2022-10-26T17:00:03;5.45;;;1.80;;
38715;SDS011;24833;49.324;8.694;2022-10-26T17:02:32;5.95;;;3.13;;
38715;SDS011;24833;49.324;8.694;2022-10-26T17:04:59;5.07;;;2.58;;
38715;SDS011;24833;49.324;8.694;2022-10-26T17:07:32;4.07;;;1.63;;
38715;SDS011;24833;49.324;8.694;2022-10-26T17:10:02;3.83;;;1.33;;
38715;SDS011;24833;49.324;8.694;2022-10-26T17:12:29;7.60;;;1.80;;
38715;SDS011;24833;49.324;8.694;2022-10-26T17:14:57;7.80;;;2.20;;
38715;SDS011;24833;49.324;8.694;2022-10-26T17:17:25;4.78;;;1.90;;
38715;SDS011;24833;49.324;8.694;2022-10-26T17:19:52;4.72;;;1.60;;
38715;SDS011;24833;49.324;8.694;2022-10-26T17:22:20;2.50;;;1.48;;
38715;SDS011;24833;49.324;8.694;2022-10-26T17:24:47;6.07;;;1.80;;
38715;SDS011;24833;49.324;8.694;2022-10-26T17:27:14;3.42;;;1.55;;
38715;SDS011;24833;49.324;8.694;2022-10-26T17:29:42;3.35;;;1.65;;
38715;SDS011;24833;49.324;8.694;2022-10-26T17:32:09;8.05;;;1.95;;
38715;SDS011;24833;49.324;8.694;2022-10-26T17:34:36;4.57;;;1.98;;
38715;SDS011;24833;49.324;8.694;2022-10-26T17:37:03;5.30;;;1.60;;
38715;SDS011;24833;49.324;8.694;2022-10-26T17:39:30;3.35;;;1.70;;
38715;SDS011;24833;49.324;8.694;2022-10-26T17:41:57;4.38;;;1.70;;
38715;SDS011;24833;49.324;8.694;2022-10-26T17:44:24;3.33;;;1.52;;
38715;SDS011;24833;49.324;8.694;2022-10-26T17:46:51;3.97;;;1.50;;
38715;SDS011;24833;49.324;8.694;2022-10-26T17:49:18;4.65;;;1.90;;
38715;SDS011;24833;49.324;8.694;2022-10-26T17:51:52;4.43;;;1.48;;
38715;SDS011;24833;49.324;8.694;2022-10-26T17:54:19;5.40;;;1.80;;
38715;SDS011;24833;49.324;8.694;2022-10-26T17:56:46;3.28;;;1.70;;
38715;SDS011;24833;49.324;8.694;2022-10-26T17:59:13;4.75;;;1.75;;
38715;SDS011;24833;49.324;8.694;2022-10-26T18:01:40;5.78;;;2.00;;
38715;SDS011;24833;49.324;8.694;2022-10-26T18:04:08;4.60;;;1.75;;
38715;SDS011;24833;49.324;8.694;2022-10-26T18:06:35;6.18;;;1.92;;
38715;SDS011;24833;49.324;8.694;2022-10-26T18:09:02;4.68;;;1.73;;